• Join FlightAware (Why Join?)
  • Login
  • US Flag GB Flag 
11:44 EDT


 

Airport Tracker/Info


-or-


 

Live Flight TrackerFlight Track Log ✈ AAL963 ✈ 25-Apr-2013 ✈ KDFW - SBGR / GRU

Flight Track Log - Related Links

Times and Time Zones

All times are in EDT time to prevent confusion due to time zone crossing. See the AAL963 flight status page for this flight to view local times or setup timezone preferences in your user account.

Time Position Orientation Groundspeed Altitude Reporting Facility
EDT Latitude Longitude Course Direction KTS MPH feet Rate Location/Type
21:22 32.8370 -97.0630 195° South 202 232 2,300  Level FlightAware
21:22 32.8060 -97.0720 194° South 235 270 2,800 1,560 Climbing FlightAware
21:23 32.7740 -97.0810 193° South 239 275 3,900 2,280 Climbing FlightAware
21:23 32.7460 -97.0870 190° South 239 275 4,900 1,920 Climbing FlightAware
21:23 32.7140 -97.0910 186° South 251 289 5,700 1,920 Climbing FlightAware
21:24 32.6840 -97.0950 186° South 251 289 6,700 2,400 Climbing FlightAware
21:24 32.6790 -97.0950 180° South 251 289 6,900 1,380 Climbing FlightAware
21:24 32.6500 -97.0890 170° South 272 313 7,400 1,740 Climbing FlightAware
21:25 32.6150 -97.0670 152° Southeast 281 323 8,500 2,040 Climbing FlightAware
21:25 32.5890 -97.0450 145° Southeast 284 327 9,300 1,800 Climbing FlightAware
21:26 32.5380 -97.0040 146° Southeast 297 342 10,600 1,620 Climbing FlightAware
21:27 32.4890 -96.9680 148° Southeast 320 368 11,600 1,380 Climbing FlightAware
21:27 32.4370 -96.9300 148° Southeast 345 397 12,500 1,380 Climbing FlightAware
21:28 32.3730 -96.8830 148° Southeast 374 430 13,600 1,680 Climbing FlightAware
21:29 32.3140 -96.8370 147° Southeast 389 448 14,900 1,980 Climbing FlightAware
21:29 32.2490 -96.8010 155° Southeast 395 455 16,300 2,040 Climbing FlightAware
21:30 32.1680 -96.7700 162° South 406 467 17,800 1,920 Climbing FlightAware
21:31 32.0940 -96.7430 163° South 416 479 19,100 1,980 Climbing FlightAware
21:31 32.0590 -96.7298 162° South 421 484 19,700 1,860 Climbing FlightAware ADS-B
21:32 31.9841 -96.7014 162° South 430 495 20,900 1,800 Climbing FlightAware ADS-B
21:32 31.9258 -96.6792 162° South 436 502 21,900 1,740 Climbing FlightAware ADS-B
21:33 31.8668 -96.6567 162° South 442 509 22,700 1,620 Climbing FlightAware ADS-B
21:33 31.8080 -96.6324 161° South 447 514 23,600 1,620 Climbing FlightAware ADS-B
21:34 31.7459 -96.6065 160° South 453 521 24,400 1,500 Climbing FlightAware ADS-B
21:34 31.7121 -96.5925 161° South 454 522 24,800 1,500 Climbing FlightAware ADS-B
21:34 31.6834 -96.5809 161° South 460 529 25,200 1,380 Climbing FlightAware ADS-B
21:35 31.6276 -96.5580 161° South 466 536 25,800 1,260 Climbing FlightAware ADS-B
21:35 31.6196 -96.5548 161° South 466 536 25,900 1,320 Climbing FlightAware ADS-B
21:35 31.5649 -96.5326 161° South 470 541 26,500 1,380 Climbing FlightAware ADS-B
21:35 31.5568 -96.5293 161° South 470 541 26,600 960 Climbing FlightAware ADS-B
21:36 31.5023 -96.5072 161° South 478 550 27,000 1,020 Climbing FlightAware ADS-B
21:36 31.4882 -96.5018 162° South 478 550 27,200 1,140 Climbing FlightAware ADS-B
21:36 31.4373 -96.4830 163° South 481 554 27,600 1,140 Climbing FlightAware ADS-B
21:37 31.4207 -96.4769 163° South 482 555 27,800 1,380 Climbing FlightAware ADS-B
21:37 31.3730 -96.4595 163° South 483 556 28,300 1,500 Climbing FlightAware ADS-B
21:37 31.3547 -96.4527 162° South 483 556 28,600 1,740 Climbing FlightAware ADS-B
21:37 31.3362 -96.4457 162° South 484 557 28,800 1,380 Climbing FlightAware ADS-B
21:37 31.3286 -96.4424 160° South 486 559 28,900 960 Climbing FlightAware ADS-B
21:37 31.3237 -96.4398 156° South 489 563 28,900 840 Level FlightAware ADS-B
21:37 31.3132 -96.4332 152° Southeast 494 568 29,000 1,500 Climbing FlightAware ADS-B
21:38 31.3004 -96.4231 146° Southeast 500 575 29,200 960 Climbing FlightAware ADS-B
21:38 31.2587 -96.3818 140° Southeast 508 585 29,500 960 Climbing FlightAware ADS-B
21:38 31.2563 -96.3792 137° Southeast 510 587 29,600 900 Climbing FlightAware ADS-B
21:38 31.2374 -96.3578 136° Southeast 514 592 29,700 660 Climbing FlightAware ADS-B
21:38 31.2275 -96.3458 134° Southeast 516 594 29,800 1,260 Climbing FlightAware ADS-B
21:38 31.2064 -96.3182 132° Southeast 520 598 30,100 1,260 Climbing FlightAware ADS-B
21:38 31.2055 -96.3169 129° Southeast 520 598 30,100 960 Level FlightAware ADS-B
21:39 31.1615 -96.2495 127° Southeast 527 606 30,600 960 Climbing FlightAware ADS-B
21:39 31.1177 -96.1796 126° Southeast 529 609 31,100 1,080 Climbing FlightAware ADS-B
21:40 31.0735 -96.1099 127° Southeast 529 609 31,700 1,260 Climbing FlightAware ADS-B
21:40 31.0291 -96.0411 127° Southeast 526 605 32,400 1,500 Climbing FlightAware ADS-B
21:40 31.0269 -96.0377 127° Southeast 526 605 32,500 1,200 Climbing FlightAware ADS-B
21:41 30.9847 -95.9732 127° Southeast 525 604 33,000 1,140 Climbing FlightAware ADS-B
21:41 30.9812 -95.9678 127° Southeast 525 604 33,100 960 Climbing FlightAware ADS-B
21:41 30.9402 -95.9054 127° Southeast 526 605 33,500 960 Climbing FlightAware ADS-B
21:42 30.9362 -95.8994 128° Southeast 526 605 33,600 600 Climbing FlightAware ADS-B
21:42 30.8955 -95.8376 127° Southeast 531 611 33,800 360 Climbing FlightAware ADS-B
21:42 30.8912 -95.8311 128° Southeast 531 611 33,800 780 Level FlightAware ADS-B
21:42 30.8627 -95.7881 128° Southeast 532 612 34,100 960 Climbing FlightAware ADS-B
21:43 30.8442 -95.7600 127° Southeast 532 612 34,300 780 Climbing FlightAware ADS-B
21:43 30.8177 -95.7201 128° Southeast 533 613 34,500 540 Climbing FlightAware ADS-B
21:43 30.7989 -95.6914 127° Southeast 534 615 34,600 600 Climbing FlightAware ADS-B
21:43 30.7722 -95.6511 128° Southeast 535 616 34,800 780 Climbing FlightAware ADS-B
21:44 30.7532 -95.6223 128° Southeast 536 617 35,000 360 Climbing FlightAware ADS-B
21:44 30.7271 -95.5828 128° Southeast 536 617 35,000  Level FlightAware ADS-B
21:44 30.7060 -95.5509 128° Southeast 536 617 35,000  Level FlightAware ADS-B
21:44 30.6796 -95.5110 128° Southeast 535 616 35,000  Level FlightAware ADS-B
21:45 30.6541 -95.4726 128° Southeast 535 616 35,000  Level FlightAware ADS-B
21:45 30.6340 -95.4421 127° Southeast 535 616 35,000  Level FlightAware ADS-B
21:45 30.6080 -95.4030 128° Southeast 535 616 35,000  Level FlightAware ADS-B
21:45 30.5884 -95.3734 128° Southeast 535 616 35,000  Level FlightAware ADS-B
21:46 30.5627 -95.3348 128° Southeast 536 617 35,000  Level FlightAware ADS-B
21:46 30.5429 -95.3051 128° Southeast 536 617 35,000  Level FlightAware ADS-B
21:46 30.5163 -95.2651 128° Southeast 535 616 35,000  Level FlightAware ADS-B
21:46 30.4975 -95.2367 128° Southeast 535 616 35,000  Level FlightAware ADS-B
21:47 30.4704 -95.1962 128° Southeast 535 616 35,000  Level FlightAware ADS-B
21:47 30.4485 -95.1634 128° Southeast 534 615 35,000  Level FlightAware ADS-B
21:47 30.4247 -95.1275 128° Southeast 534 615 35,000  Level FlightAware ADS-B
21:47 30.4023 -95.0941 128° Southeast 534 615 35,000  Level FlightAware ADS-B
21:48 30.3792 -95.0595 128° Southeast 534 615 35,000  Level FlightAware ADS-B
21:48 30.3552 -95.0236 128° Southeast 534 615 35,000  Level FlightAware ADS-B
21:48 30.3331 -94.9907 128° Southeast 533 613 35,000  Level FlightAware ADS-B
21:48 30.3077 -94.9528 128° Southeast 534 615 35,000  Level FlightAware ADS-B
21:49 30.2875 -94.9229 128° Southeast 534 615 35,000  Level FlightAware ADS-B
21:49 30.2603 -94.8824 128° Southeast 533 613 35,000  Level FlightAware ADS-B
21:49 30.2417 -94.8547 128° Southeast 533 613 35,000  Level FlightAware ADS-B
21:49 30.2136 -94.8128 128° Southeast 532 612 35,000  Level FlightAware ADS-B
21:50 30.1961 -94.7868 128° Southeast 532 612 35,000  Level FlightAware ADS-B
21:50 30.1678 -94.7449 128° Southeast 532 612 35,000  Level FlightAware ADS-B
21:50 30.1493 -94.7176 128° Southeast 532 612 35,000  Level FlightAware ADS-B
21:51 30.1221 -94.6772 128° Southeast 532 612 35,000  Level FlightAware ADS-B
21:51 30.1038 -94.6501 128° Southeast 532 612 35,000  Level FlightAware ADS-B
21:51 30.0761 -94.6091 128° Southeast 532 612 35,000  Level FlightAware ADS-B
21:51 30.0581 -94.5825 128° Southeast 532 612 35,000  Level FlightAware ADS-B
21:52 30.0307 -94.5421 128° Southeast 532 612 35,000  Level FlightAware ADS-B
21:52 30.0122 -94.5149 128° Southeast 531 611 35,000  Level FlightAware ADS-B
21:52 29.9847 -94.4743 128° Southeast 531 611 35,000  Level FlightAware ADS-B
21:52 29.9668 -94.4480 128° Southeast 531 611 35,000  Level FlightAware ADS-B
21:53 29.9388 -94.4069 128° Southeast 531 611 35,000  Level FlightAware ADS-B
21:53 29.9210 -94.3806 128° Southeast 531 611 35,000  Level FlightAware ADS-B
21:53 29.8929 -94.3393 128° Southeast 531 611 35,000  Level FlightAware ADS-B
21:53 29.8748 -94.3129 128° Southeast 531 611 35,000  Level FlightAware ADS-B
21:54 29.8465 -94.2714 128° Southeast 531 611 35,000  Level FlightAware ADS-B
21:54 29.8291 -94.2458 128° Southeast 531 611 35,000  Level FlightAware ADS-B
21:54 29.8006 -94.2042 128° Southeast 530 610 35,000  Level FlightAware ADS-B
21:54 29.7829 -94.1785 128° Southeast 531 611 35,000  Level FlightAware ADS-B
21:55 29.7550 -94.1375 128° Southeast 530 610 35,000  Level FlightAware ADS-B
21:55 29.7371 -94.1116 129° Southeast 530 610 35,000  Level FlightAware ADS-B
21:55 29.7209 -94.0879 128° Southeast 529 609 35,000  Level FlightAware ADS-B
21:55 29.7140 -94.0784 130° Southeast 528 608 35,000  Level FlightAware ADS-B
21:55 29.6758 -94.0306 133° Southeast 525 604 35,000  Level FlightAware ADS-B
21:55 29.6689 -94.0228 136° Southeast 524 603 35,000  Level FlightAware ADS-B
21:56 29.6574 -94.0110 138° Southeast 520 598 35,000  Level FlightAware ADS-B
21:56 29.6068 -93.9665 143° Southeast 521 600 35,000  Level FlightAware ADS-B
21:56 29.5995 -93.9604 144° Southeast 516 594 35,000  Level FlightAware ADS-B
21:56 29.5574 -93.9256 144° Southeast 516 594 35,000  Level FlightAware ADS-B
21:57 29.5401 -93.9114 144° Southeast 516 594 35,000  Level FlightAware ADS-B
21:57 29.4971 -93.8759 144° Southeast 516 594 35,000  Level FlightAware ADS-B
21:57 29.4817 -93.8631 144° Southeast 516 594 35,000  Level FlightAware ADS-B
21:58 29.4238 -93.8144 144° Southeast 515 593 35,000  Level FlightAware ADS-B
21:58 29.3584 -93.7588 143° Southeast 514 592 35,000  Level FlightAware ADS-B
21:59 29.2939 -93.7036 143° Southeast 513 590 35,000  Level FlightAware ADS-B
21:59 29.2360 -93.6541 143° Southeast 511 588 35,000  Level FlightAware ADS-B
22:00 29.1740 -93.6014 143° Southeast 510 587 35,000  Level FlightAware ADS-B
22:00 29.1039 -93.5419 143° Southeast 510 587 35,000  Level FlightAware ADS-B
22:01 29.0391 -93.4871 144° Southeast 510 587 35,000  Level FlightAware ADS-B
22:02 28.9719 -93.4303 144° Southeast 509 586 35,000  Level FlightAware ADS-B
22:02 28.9148 -93.3822 144° Southeast 510 587 35,000  Level FlightAware ADS-B
22:03 28.8722 -93.3447 144° Southeast 509 586 35,000  Level Houston Center
22:04 28.7353 -93.2300 144° Southeast 509 586 35,000 -60 Level Houston Center
22:05 28.6197 -93.1339 144° Southeast 514 592 34,900  Descending Houston Center
22:06 28.5050 -93.0372 143° Southeast 515 593 35,000  Climbing Houston Center
22:07 28.3886 -92.9408 144° Southeast 519 597 35,000 -60 Level Houston Center
22:08 28.2722 -92.8464 144° Southeast 516 594 34,900  Descending Houston Center
22:09 28.1561 -92.7481 143° Southeast 522 601 35,000  Climbing Houston Center
22:10 28.0389 -92.6508 144° Southeast 522 601 35,000  Level Houston Center
22:11 27.9208 -92.5561 145° Southeast 522 601 35,000  Level Houston Center
22:12 27.8028 -92.4575 144° Southeast 526 605 35,000  Level Houston Center
22:13 27.6839 -92.3625 145° Southeast 526 605 35,000 -60 Level Houston Center
22:14 27.5408 -92.2453 144° Southeast 528 608 34,900 -60 Descending Houston Center
22:15 27.4208 -92.1483 144° Southeast 529 609 34,900  Level Houston Center
22:16 27.3008 -92.0503 144° Southeast 532 612 34,900  Level Houston Center
22:18 27.1314 -91.9050 144° Southeast  Level FlightAware Approximate
22:25 26.3791 -91.3063 144° Southeast  Level FlightAware Approximate
22:26 26.2706 -91.2227 146° Southeast  Level FlightAware Approximate
22:27 26.1618 -91.1397 146° Southeast  Level FlightAware Approximate
22:28 26.0529 -91.0568 146° Southeast  Level FlightAware Approximate
22:29 25.9450 -90.9726 144° Southeast  Level FlightAware Approximate
22:30 25.8380 -90.8870 144° Southeast  Level FlightAware Approximate
22:31 25.7303 -90.8025 145° Southeast  Level FlightAware Approximate
22:32 25.6226 -90.7181 145° Southeast  Level FlightAware Approximate
22:33 25.5148 -90.6339 145° Southeast  Level FlightAware Approximate
22:34 25.4070 -90.5499 145° Southeast  Level FlightAware Approximate
22:35 25.2992 -90.4660 145° Southeast  Level FlightAware Approximate
22:36 25.1912 -90.3822 145° Southeast  Level FlightAware Approximate
22:37 25.0833 -90.2986 145° Southeast  Level FlightAware Approximate
22:38 24.9753 -90.2151 145° Southeast  Level FlightAware Approximate
22:39 24.8673 -90.1318 145° Southeast  Level FlightAware Approximate
22:40 24.7561 -90.0463 145° Southeast  Level FlightAware Approximate
22:41 24.6449 -89.9610 145° Southeast  Level FlightAware Approximate
22:42 24.5337 -89.8758 145° Southeast  Level FlightAware Approximate
22:43 24.4252 -89.7867 144° Southeast  Level FlightAware Approximate
22:44 24.3155 -89.6992 147° Southeast  Level FlightAware Approximate
22:45 24.2013 -89.6192 147° Southeast  Level FlightAware Approximate
22:46 24.0884 -89.5370 146° Southeast  Level FlightAware Approximate
22:47 23.9766 -89.4530 146° Southeast  Level FlightAware Approximate
22:48 23.8648 -89.3692 146° Southeast  Level FlightAware Approximate
22:49 23.7529 -89.2855 146° Southeast  Level FlightAware Approximate
22:50 23.6410 -89.2020 146° Southeast  Level FlightAware Approximate
22:51 23.5290 -89.1186 146° Southeast  Level FlightAware Approximate
22:52 23.4170 -89.0354 146° Southeast  Level FlightAware Approximate
22:53 23.3049 -88.9523 146° Southeast  Level FlightAware Approximate
22:54 23.1928 -88.8693 146° Southeast  Level FlightAware Approximate
22:55 23.0781 -88.7909 148° Southeast  Level FlightAware Approximate
22:56 22.9791 -88.6907 136° Southeast  Level FlightAware Approximate
22:57 22.8819 -88.5881 136° Southeast  Level FlightAware Approximate
22:58 22.7847 -88.4856 136° Southeast  Level FlightAware Approximate
22:59 22.6896 -88.3809 134° Southeast  Level FlightAware Approximate
23:00 22.5943 -88.2764 136° Southeast  Level FlightAware Approximate
23:01 22.4974 -88.1738 136° Southeast  Level FlightAware Approximate
23:02 22.4003 -88.0714 136° Southeast  Level FlightAware Approximate
23:03 22.3032 -87.9691 136° Southeast  Level FlightAware Approximate
23:04 22.2061 -87.8670 136° Southeast  Level FlightAware Approximate
23:05 22.1088 -87.7650 136° Southeast  Level FlightAware Approximate
23:06 22.0115 -87.6631 136° Southeast  Level FlightAware Approximate
23:07 21.9142 -87.5614 136° Southeast  Level FlightAware Approximate
23:08 21.8168 -87.4598 136° Southeast  Level FlightAware Approximate
23:09 21.7193 -87.3584 136° Southeast  Level FlightAware Approximate
23:09 27.5842 -84.1964 137° Southeast 395 455 36,000  Level Jacksonville Center
23:10 21.6217 -87.2571 136° Southeast  Level FlightAware Approximate
23:11 21.5237 -87.1564 137° Southeast  Level FlightAware Approximate
23:11 27.4002 -84.0275 141° Southeast  Level Estimated
23:12 21.4251 -87.0565 137° Southeast  Level FlightAware Approximate
23:13 21.3263 -86.9567 137° Southeast  Level FlightAware Approximate
23:14 21.2276 -86.8571 137° Southeast  Level FlightAware Approximate
23:18 26.6624 -83.3576 141° Southeast  Level Estimated
23:19 26.5567 -83.2626 141° Southeast  Level Estimated
23:20 26.4510 -83.1678 141° Southeast  Level Estimated
23:21 26.3452 -83.0732 141° Southeast  Level Estimated
23:22 26.2394 -82.9787 141° Southeast  Level Estimated
23:23 26.1335 -82.8844 141° Southeast  Level Estimated
23:24 26.0275 -82.7903 141° Southeast  Level Estimated
23:25 25.9215 -82.6963 141° Southeast  Level Estimated
23:26 25.8154 -82.6025 141° Southeast  Level Estimated
23:27 25.7092 -82.5089 142° Southeast  Level Estimated
23:28 25.6030 -82.4155 142° Southeast  Level Estimated
23:29 25.4967 -82.3222 142° Southeast  Level Estimated
23:30 25.3904 -82.2291 142° Southeast  Level Estimated
23:31 25.2840 -82.1361 142° Southeast  Level Estimated
23:32 25.1776 -82.0433 142° Southeast  Level Estimated
23:33 25.0711 -81.9507 142° Southeast  Level Estimated
23:34 24.9645 -81.8582 142° Southeast  Level Estimated
23:35 24.8579 -81.7659 142° Southeast  Level Estimated
23:36 24.7512 -81.6738 142° Southeast  Level Estimated
23:37 24.6445 -81.5818 142° Southeast  Level Estimated
23:38 24.5377 -81.4899 142° Southeast  Level Estimated
23:39 24.4309 -81.3983 142° Southeast  Level Estimated
23:40 24.3240 -81.3067 142° Southeast  Level Estimated
23:41 24.2170 -81.2154 142° Southeast  Level Estimated
23:42 24.1100 -81.1242 142° Southeast  Level Estimated
23:43 24.0030 -81.0331 142° Southeast  Level Estimated
23:44 23.8958 -80.9422 142° Southeast  Level Estimated
23:45 23.7887 -80.8514 142° Southeast  Level Estimated
23:46 23.6814 -80.7608 142° Southeast  Level Estimated
23:47 23.5742 -80.6703 142° Southeast  Level Estimated
23:48 23.4669 -80.5800 142° Southeast  Level Estimated
23:49 23.3595 -80.4899 142° Southeast  Level Estimated
23:50 23.2520 -80.3998 142° Southeast  Level Estimated
23:51 23.1446 -80.3100 142° Southeast  Level Estimated
23:52 23.0370 -80.2202 142° Southeast  Level Estimated
23:53 22.9294 -80.1306 143° Southeast  Level Estimated
23:54 22.8218 -80.0412 143° Southeast  Level Estimated
23:55 22.7141 -79.9519 143° Southeast  Level Estimated
23:56 22.6064 -79.8627 143° Southeast  Level Estimated
23:57 22.4986 -79.7737 143° Southeast  Level Estimated
23:58 22.3908 -79.6848 143° Southeast  Level Estimated
23:59 22.2829 -79.5960 143° Southeast  Level Estimated
00:00 22.1750 -79.5074 143° Southeast  Level Estimated
00:01 22.0670 -79.4190 143° Southeast  Level Estimated
00:02 21.9590 -79.3306 143° Southeast  Level Estimated
00:03 21.8509 -79.2424 143° Southeast  Level Estimated
00:04 21.7428 -79.1543 143° Southeast  Level Estimated
00:05 21.6346 -79.0664 143° Southeast  Level Estimated
00:06 21.5264 -78.9786 143° Southeast  Level Estimated
00:07 21.4182 -78.8909 143° Southeast  Level Estimated
00:08 21.3099 -78.8033 143° Southeast  Level Estimated
00:09 21.2015 -78.7159 143° Southeast  Level Estimated
00:10 21.0932 -78.6286 143° Southeast  Level Estimated
00:11 20.9847 -78.5415 143° Southeast  Level Estimated
00:12 20.8762 -78.4544 143° Southeast  Level Estimated
00:13 20.7677 -78.3675 143° Southeast  Level Estimated
00:14 20.6592 -78.2807 143° Southeast  Level Estimated
00:15 20.5506 -78.1941 143° Southeast  Level Estimated
00:16 20.4419 -78.1075 143° Southeast  Level Estimated
00:17 20.3332 -78.0211 143° Southeast  Level Estimated
00:18 20.2245 -77.9348 143° Southeast  Level Estimated
00:19 20.1157 -77.8486 143° Southeast  Level Estimated
00:20 20.0069 -77.7626 143° Southeast  Level Estimated
00:21 19.8980 -77.6766 143° Southeast  Level Estimated
00:22 19.7891 -77.5908 143° Southeast  Level Estimated
00:23 19.6802 -77.5051 143° Southeast  Level Estimated
00:24 19.5712 -77.4195 143° Southeast  Level Estimated
00:25 19.4621 -77.3340 144° Southeast  Level Estimated
00:26 19.3531 -77.2487 144° Southeast  Level Estimated
00:27 19.2440 -77.1634 144° Southeast  Level Estimated
00:28 19.1348 -77.0783 144° Southeast  Level Estimated
00:29 19.0256 -76.9933 144° Southeast  Level Estimated
00:30 18.9164 -76.9084 144° Southeast  Level Estimated
00:31 18.8072 -76.8236 144° Southeast  Level Estimated
00:32 18.6979 -76.7389 144° Southeast  Level Estimated
00:33 18.5885 -76.6543 144° Southeast  Level Estimated
00:34 18.4791 -76.5699 144° Southeast  Level Estimated
00:35 18.3697 -76.4855 144° Southeast  Level Estimated
00:36 18.2603 -76.4013 144° Southeast  Level Estimated
00:37 18.1508 -76.3171 144° Southeast  Level Estimated
00:38 18.0413 -76.2331 144° Southeast  Level Estimated
00:39 17.9317 -76.1491 144° Southeast  Level Estimated
00:39 11.4280 -77.7800 144° Southeast 488 562 37,000  Level FlightAware
00:40 17.8221 -76.0653 144° Southeast  Level Estimated
00:40 11.3360 -77.7070 142° Southeast 488 562 37,000  Level FlightAware
00:41 11.2900 -77.6710 142° Southeast 488 562 37,000  Level FlightAware
00:41 11.1880 -77.5930 143° Southeast 487 560 37,000  Level FlightAware
00:42 11.0780 -77.5080 143° Southeast 487 560 37,000  Level FlightAware
00:43 11.0180 -77.4600 142° Southeast 487 560 37,000  Level FlightAware
00:44 10.9200 -77.3800 141° Southeast 496 571 37,000  Level FlightAware
00:45 10.8550 -77.3200 138° Southeast 490 564 37,000  Level FlightAware
00:45 10.7930 -77.2600 136° Southeast 490 564 37,000  Level FlightAware
00:46 10.6920 -77.1650 137° Southeast 489 563 37,000  Level FlightAware
00:47 10.6370 -77.1110 136° Southeast 489 563 37,000  Level FlightAware
00:48 10.5500 -77.0360 140° Southeast 487 560 37,000  Level FlightAware
00:48 10.4840 -76.9710 136° Southeast 487 560 37,000  Level FlightAware
00:49 10.3950 -76.8920 139° Southeast 484 557 37,000  Level FlightAware
00:50 10.3300 -76.8310 137° Southeast 484 557 37,000  Level FlightAware
00:50 10.2620 -76.7680 138° Southeast 484 557 37,000  Level FlightAware
00:51 10.2080 -76.7180 138° Southeast 483 556 37,000  Level FlightAware
00:52 10.0930 -76.6110 138° Southeast 483 556 37,000  Level FlightAware
00:53 10.0270 -76.5500 138° Southeast 482 555 37,000  Level FlightAware
00:53 9.9570 -76.4860 138° Southeast 481 554 37,000  Level FlightAware
00:54 9.8860 -76.4200 138° Southeast 481 554 37,000  Level FlightAware
00:55 9.8250 -76.3640 138° Southeast 486 559 37,000  Level FlightAware
00:56 9.7460 -76.2900 137° Southeast 485 558 37,000  Level FlightAware
00:56 9.6890 -76.2360 137° Southeast 485 558 37,000  Level FlightAware
00:57 9.6070 -76.1770 145° Southeast 477 549 37,000  Level FlightAware
00:58 9.5040 -76.1200 151° Southeast 475 547 37,000  Level FlightAware
00:58 9.4410 -76.0800 148° Southeast 475 547 37,000  Level FlightAware
00:59 9.3620 -76.0300 148° Southeast 475 547 37,000  Level FlightAware
01:00 9.2980 -75.9890 148° Southeast 475 547 37,000  Level FlightAware
01:01 9.2350 -75.9490 148° Southeast 475 547 37,000  Level FlightAware
01:01 9.1720 -75.9090 148° Southeast 475 547 37,000  Level FlightAware
01:02 9.1080 -75.8690 148° Southeast 475 547 37,000  Level FlightAware
01:03 9.0290 -75.8190 148° Southeast 475 547 37,000  Level FlightAware
01:03 8.9660 -75.7790 148° Southeast 475 547 37,000  Level FlightAware
01:04 8.9020 -75.7390 148° Southeast 475 547 37,000  Level FlightAware
01:05 8.8390 -75.6990 148° Southeast 475 547 37,000  Level FlightAware
01:05 8.7760 -75.6590 148° Southeast 475 547 37,000  Level FlightAware
01:06 8.6970 -75.6090 148° Southeast 475 547 37,000  Level FlightAware
01:07 8.6330 -75.5690 148° Southeast 475 547 37,000  Level FlightAware
01:10 8.3754 -75.3428 139° Southeast  Level Estimated
01:11 8.2730 -75.2530 139° Southeast  Level Estimated
01:12 8.1706 -75.1633 139° Southeast  Level Estimated
01:13 8.0682 -75.0736 139° Southeast  Level Estimated
01:14 7.9657 -74.9839 139° Southeast  Level Estimated
01:15 7.8633 -74.8943 139° Southeast  Level Estimated
01:16 7.7608 -74.8047 139° Southeast  Level Estimated
01:17 7.6583 -74.7152 139° Southeast  Level Estimated
01:18 7.5558 -74.6257 139° Southeast  Level Estimated
01:19 7.4532 -74.5363 139° Southeast  Level Estimated
01:20 7.3507 -74.4469 139° Southeast  Level Estimated
01:21 7.2481 -74.3576 139° Southeast  Level Estimated
01:22 7.1455 -74.2682 139° Southeast  Level Estimated
01:23 7.0429 -74.1790 139° Southeast  Level Estimated
01:24 6.9403 -74.0898 139° Southeast  Level Estimated
01:25 6.8378 -74.0007 139° Southeast  Level Estimated
01:26 6.7354 -73.9117 139° Southeast  Level Estimated
01:27 6.6329 -73.8228 139° Southeast  Level Estimated
01:28 6.5304 -73.7338 139° Southeast  Level Estimated
01:29 6.4278 -73.6450 139° Southeast  Level Estimated
01:30 6.3253 -73.5561 139° Southeast  Level Estimated
01:31 6.2228 -73.4673 139° Southeast  Level Estimated
01:32 6.1202 -73.3785 139° Southeast  Level Estimated
01:33 6.0176 -73.2898 139° Southeast  Level Estimated
01:34 5.9150 -73.2011 139° Southeast  Level Estimated
01:35 5.8124 -73.1124 139° Southeast  Level Estimated
01:36 5.7098 -73.0238 139° Southeast  Level Estimated
01:37 5.6071 -72.9352 139° Southeast  Level Estimated
01:38 5.5045 -72.8466 139° Southeast  Level Estimated
01:39 5.4018 -72.7580 139° Southeast  Level Estimated
01:40 5.2991 -72.6695 139° Southeast  Level Estimated
01:41 5.1965 -72.5810 139° Southeast  Level Estimated
01:42 5.0938 -72.4926 139° Southeast  Level Estimated
01:43 4.9910 -72.4041 139° Southeast  Level Estimated
01:44 4.8883 -72.3157 139° Southeast  Level Estimated
01:45 4.7856 -72.2273 139° Southeast  Level Estimated
01:46 4.6828 -72.1390 139° Southeast  Level Estimated
01:47 4.5801 -72.0507 139° Southeast  Level Estimated
01:48 4.4773 -71.9623 139° Southeast  Level Estimated
01:49 4.3745 -71.8741 139° Southeast  Level Estimated
01:50 4.2717 -71.7858 139° Southeast  Level Estimated
01:51 4.1689 -71.6976 139° Southeast  Level Estimated
01:52 4.0661 -71.6094 139° Southeast  Level Estimated
01:53 3.9631 -71.5210 139° Southeast  Level Estimated
01:54 3.8601 -71.4327 139° Southeast  Level Estimated
01:55 3.7571 -71.3444 139° Southeast  Level Estimated
01:56 3.6541 -71.2561 139° Southeast  Level Estimated
01:57 3.5510 -71.1679 139° Southeast  Level Estimated
01:58 3.4480 -71.0796 139° Southeast  Level Estimated
01:59 3.3449 -70.9914 139° Southeast  Level Estimated
02:00 3.2418 -70.9032 139° Southeast  Level Estimated
02:01 3.1388 -70.8150 139° Southeast  Level Estimated
02:02 3.0357 -70.7269 139° Southeast  Level Estimated
02:03 2.9326 -70.6387 140° Southeast  Level Estimated
02:04 2.8295 -70.5506 140° Southeast  Level Estimated
02:05 2.7264 -70.4625 140° Southeast  Level Estimated
02:06 2.6233 -70.3744 140° Southeast  Level Estimated
02:07 2.5202 -70.2863 140° Southeast  Level Estimated
02:08 2.4170 -70.1982 140° Southeast  Level Estimated
02:09 2.3139 -70.1102 140° Southeast  Level Estimated
02:10 2.2108 -70.0221 140° Southeast  Level Estimated
02:11 2.1076 -69.9341 140° Southeast  Level Estimated
02:12 2.0045 -69.8460 140° Southeast  Level Estimated
02:13 1.9014 -69.7580 140° Southeast  Level Estimated
02:14 1.7982 -69.6700 140° Southeast  Level Estimated
02:15 1.6950 -69.5820 140° Southeast  Level Estimated
02:16 1.5919 -69.4941 140° Southeast  Level Estimated
02:17 1.4889 -69.4062 140° Southeast  Level Estimated
02:18 1.3859 -69.3184 140° Southeast  Level Estimated
02:19 1.2829 -69.2306 140° Southeast  Level Estimated
02:20 1.1799 -69.1429 140° Southeast  Level Estimated
02:21 1.0770 -69.0551 140° Southeast  Level Estimated
02:22 0.9740 -68.9673 140° Southeast  Level Estimated
02:23 0.8710 -68.8795 140° Southeast  Level Estimated
02:24 0.7680 -68.7917 140° Southeast  Level Estimated
02:25 0.6650 -68.7040 140° Southeast  Level Estimated
02:26 0.5620 -68.6162 140° Southeast  Level Estimated
02:27 0.4590 -68.5285 140° Southeast  Level Estimated
02:28 0.3560 -68.4407 140° Southeast  Level Estimated
02:29 0.2530 -68.3530 140° Southeast  Level Estimated
02:30 0.1500 -68.2652 140° Southeast  Level Estimated
02:31 0.0470 -68.1775 140° Southeast  Level Estimated
02:32 -0.0560 -68.0897 140° Southeast  Level Estimated
02:33 -0.1590 -68.0020 140° Southeast  Level Estimated
02:34 -0.2620 -67.9142 140° Southeast  Level Estimated
02:35 -0.3650 -67.8264 140° Southeast  Level Estimated
02:36 -0.4680 -67.7387 140° Southeast  Level Estimated
02:37 -0.5710 -67.6509 140° Southeast  Level Estimated
02:38 -0.6740 -67.5632 140° Southeast  Level Estimated
02:39 -0.7770 -67.4754 140° Southeast  Level Estimated
02:40 -0.8800 -67.3876 140° Southeast  Level Estimated
02:41 -0.9830 -67.2999 140° Southeast  Level Estimated
02:42 -1.0860 -67.2121 140° Southeast  Level Estimated
02:43 -1.1890 -67.1243 140° Southeast  Level Estimated
02:44 -1.2920 -67.0365 140° Southeast  Level Estimated
02:45 -1.3950 -66.9487 140° Southeast  Level Estimated
02:46 -1.4979 -66.8609 140° Southeast  Level Estimated
02:47 -1.6009 -66.7731 140° Southeast  Level Estimated
02:48 -1.7039 -66.6852 140° Southeast  Level Estimated
02:49 -1.8069 -66.5974 140° Southeast  Level Estimated
02:50 -1.9098 -66.5096 140° Southeast  Level Estimated
02:51 -2.0128 -66.4217 140° Southeast  Level Estimated
02:52 -2.1157 -66.3339 140° Southeast  Level Estimated
02:53 -2.2187 -66.2460 140° Southeast  Level Estimated
02:54 -2.3216 -66.1581 140° Southeast  Level Estimated
02:55 -2.4246 -66.0702 140° Southeast  Level Estimated
02:56 -2.5275 -65.9823 140° Southeast  Level Estimated
02:57 -2.6304 -65.8943 140° Southeast  Level Estimated
02:58 -2.7333 -65.8064 140° Southeast  Level Estimated
02:59 -2.8363 -65.7184 140° Southeast  Level Estimated
03:00 -2.9392 -65.6305 140° Southeast  Level Estimated
03:01 -3.0421 -65.5425 140° Southeast  Level Estimated
03:02 -3.1450 -65.4545 140° Southeast  Level Estimated
03:03 -3.2478 -65.3664 139° Southeast  Level Estimated
03:04 -3.3507 -65.2784 139° Southeast  Level Estimated
03:05 -3.4536 -65.1904 139° Southeast  Level Estimated
03:06 -3.5565 -65.1023 139° Southeast  Level Estimated
03:07 -3.6593 -65.0142 139° Southeast  Level Estimated
03:08 -3.7622 -64.9260 139° Southeast  Level Estimated
03:09 -3.8650 -64.8379 139° Southeast  Level Estimated
03:10 -3.9678 -64.7497 139° Southeast  Level Estimated
03:11 -4.0707 -64.6616 139° Southeast  Level Estimated
03:12 -4.1735 -64.5734 139° Southeast  Level Estimated
03:13 -4.2763 -64.4851 139° Southeast  Level Estimated
03:14 -4.3790 -64.3969 139° Southeast  Level Estimated
03:15 -4.4818 -64.3086 139° Southeast  Level Estimated
03:16 -4.5846 -64.2203 139° Southeast  Level Estimated
03:17 -4.6874 -64.1320 139° Southeast  Level Estimated
03:18 -4.7901 -64.0436 139° Southeast  Level Estimated
03:19 -4.8928 -63.9552 139° Southeast  Level Estimated
03:20 -4.9956 -63.8668 139° Southeast  Level Estimated
03:21 -5.0983 -63.7784 139° Southeast  Level Estimated
03:22 -5.2010 -63.6899 139° Southeast  Level Estimated
03:23 -5.3037 -63.6014 139° Southeast  Level Estimated
03:24 -5.4063 -63.5129 139° Southeast  Level Estimated
03:25 -5.5090 -63.4244 139° Southeast  Level Estimated
03:26 -5.6116 -63.3358 139° Southeast  Level Estimated
03:27 -5.7143 -63.2472 139° Southeast  Level Estimated
03:28 -5.8169 -63.1585 139° Southeast  Level Estimated
03:29 -5.9195 -63.0699 139° Southeast  Level Estimated
03:30 -6.0221 -62.9811 139° Southeast  Level Estimated
03:31 -6.1247 -62.8924 139° Southeast  Level Estimated
03:32 -6.2273 -62.8036 139° Southeast  Level Estimated
03:33 -6.3298 -62.7148 139° Southeast  Level Estimated
03:34 -6.4323 -62.6260 139° Southeast  Level Estimated
03:35 -6.5349 -62.5371 139° Southeast  Level Estimated
03:36 -6.6374 -62.4482 139° Southeast  Level Estimated
03:37 -6.7398 -62.3592 139° Southeast  Level Estimated
03:38 -6.8423 -62.2702 139° Southeast  Level Estimated
03:39 -6.9448 -62.1812 139° Southeast  Level Estimated
03:40 -7.0472 -62.0921 139° Southeast  Level Estimated
03:41 -7.1496 -62.0030 139° Southeast  Level Estimated
03:42 -7.2520 -61.9138 139° Southeast  Level Estimated
03:43 -7.3544 -61.8246 139° Southeast  Level Estimated
03:44 -7.4568 -61.7354 139° Southeast  Level Estimated
03:45 -7.5592 -61.6461 139° Southeast  Level Estimated
03:46 -7.6615 -61.5568 139° Southeast  Level Estimated
03:47 -7.7638 -61.4675 139° Southeast  Level Estimated
03:48 -7.8661 -61.3781 139° Southeast  Level Estimated
03:49 -7.9684 -61.2886 139° Southeast  Level Estimated
03:50 -8.0706 -61.1991 139° Southeast  Level Estimated
03:51 -8.1729 -61.1096 139° Southeast  Level Estimated
03:52 -8.2751 -61.0200 139° Southeast  Level Estimated
03:53 -8.3773 -60.9304 139° Southeast  Level Estimated
03:54 -8.4795 -60.8407 139° Southeast  Level Estimated
03:55 -8.5815 -60.7511 139° Southeast  Level Estimated
03:56 -8.6834 -60.6615 139° Southeast  Level Estimated
03:57 -8.7853 -60.5719 139° Southeast  Level Estimated
03:58 -8.8872 -60.4822 139° Southeast  Level Estimated
03:59 -8.9891 -60.3924 139° Southeast  Level Estimated
04:00 -9.0910 -60.3026 139° Southeast  Level Estimated
04:01 -9.1929 -60.2127 139° Southeast  Level Estimated
04:02 -9.2947 -60.1228 139° Southeast  Level Estimated
04:03 -9.3965 -60.0328 139° Southeast  Level Estimated
04:04 -9.4983 -59.9428 139° Southeast  Level Estimated
04:05 -9.6000 -59.8528 139° Southeast  Level Estimated
04:06 -9.7017 -59.7626 139° Southeast  Level Estimated
04:07 -9.8034 -59.6725 139° Southeast  Level Estimated
04:08 -9.9051 -59.5822 139° Southeast  Level Estimated
04:09 -10.0068 -59.4919 139° Southeast  Level Estimated
04:10 -10.1084 -59.4016 139° Southeast  Level Estimated
04:11 -10.2100 -59.3112 139° Southeast  Level Estimated
04:12 -10.3116 -59.2207 139° Southeast  Level Estimated
04:13 -10.4132 -59.1302 139° Southeast  Level Estimated
04:14 -10.5147 -59.0396 139° Southeast  Level Estimated
04:15 -10.6162 -58.9490 139° Southeast  Level Estimated
04:16 -10.7177 -58.8583 139° Southeast  Level Estimated
04:17 -10.8192 -58.7675 139° Southeast  Level Estimated
04:18 -10.9206 -58.6767 139° Southeast  Level Estimated
04:19 -11.0220 -58.5858 139° Southeast  Level Estimated
04:20 -11.1234 -58.4949 139° Southeast  Level Estimated
04:21 -11.2247 -58.4039 139° Southeast  Level Estimated
04:22 -11.3261 -58.3128 139° Southeast  Level Estimated
04:23 -11.4274 -58.2216 139° Southeast  Level Estimated
04:24 -11.5286 -58.1304 139° Southeast  Level Estimated
04:25 -11.6299 -58.0392 139° Southeast  Level Estimated
04:26 -11.7311 -57.9478 139° Southeast  Level Estimated
04:27 -11.8322 -57.8564 139° Southeast  Level Estimated
04:28 -11.9334 -57.7650 139° Southeast  Level Estimated
04:29 -12.0345 -57.6734 138° Southeast  Level Estimated
04:30 -12.1356 -57.5818 138° Southeast  Level Estimated
04:31 -12.2367 -57.4901 138° Southeast  Level Estimated
04:32 -12.3377 -57.3984 138° Southeast  Level Estimated
04:33 -12.4387 -57.3066 138° Southeast  Level Estimated
04:34 -12.5397 -57.2147 138° Southeast  Level Estimated
04:35 -12.6406 -57.1227 138° Southeast  Level Estimated
04:36 -12.7415 -57.0307 138° Southeast  Level Estimated
04:37 -12.8424 -56.9386 138° Southeast  Level Estimated
04:38 -12.9432 -56.8464 138° Southeast  Level Estimated
04:39 -13.0441 -56.7541 138° Southeast  Level Estimated
04:40 -13.1448 -56.6618 138° Southeast  Level Estimated
04:41 -13.2456 -56.5694 138° Southeast  Level Estimated
04:42 -13.3463 -56.4769 138° Southeast  Level Estimated
04:43 -13.4470 -56.3843 138° Southeast  Level Estimated
04:44 -13.5476 -56.2917 138° Southeast  Level Estimated
04:45 -13.6482 -56.1990 138° Southeast  Level Estimated
04:46 -13.7488 -56.1062 138° Southeast  Level Estimated
04:47 -13.8493 -56.0133 138° Southeast  Level Estimated
04:48 -13.9498 -55.9203 138° Southeast  Level Estimated
04:49 -14.0503 -55.8273 138° Southeast  Level Estimated
04:50 -14.1508 -55.7342 138° Southeast  Level Estimated
04:51 -14.2512 -55.6410 138° Southeast  Level Estimated
04:52 -14.3515 -55.5477 138° Southeast  Level Estimated
04:53 -14.4518 -55.4543 138° Southeast  Level Estimated
04:54 -14.5521 -55.3609 138° Southeast  Level Estimated
04:55 -14.6524 -55.2673 138° Southeast  Level Estimated
04:56 -14.7526 -55.1737 138° Southeast  Level Estimated
04:57 -14.8528 -55.0800 138° Southeast  Level Estimated
04:58 -14.9529 -54.9862 138° Southeast  Level Estimated
04:59 -15.0530 -54.8923 138° Southeast  Level Estimated
05:00 -15.1531 -54.7984 138° Southeast  Level Estimated
05:01 -15.2531 -54.7043 138° Southeast  Level Estimated
05:02 -15.3531 -54.6102 138° Southeast  Level Estimated
05:03 -15.4530 -54.5159 138° Southeast  Level Estimated
05:04 -15.5529 -54.4216 138° Southeast  Level Estimated
05:05 -15.6528 -54.3272 138° Southeast  Level Estimated
05:06 -15.7526 -54.2327 138° Southeast  Level Estimated
05:07 -15.8524 -54.1380 138° Southeast  Level Estimated
05:08 -15.9521 -54.0433 138° Southeast  Level Estimated
05:09 -16.0518 -53.9485 138° Southeast  Level Estimated
05:10 -16.1515 -53.8536 138° Southeast  Level Estimated
05:11 -16.2511 -53.7587 138° Southeast  Level Estimated
05:12 -16.3507 -53.6636 138° Southeast  Level Estimated
05:13 -16.4502 -53.5684 137° Southeast  Level Estimated
05:14 -16.5497 -53.4731 137° Southeast  Level Estimated
05:15 -16.6492 -53.3777 137° Southeast  Level Estimated
05:16 -16.7486 -53.2823 137° Southeast  Level Estimated
05:17 -16.8479 -53.1867 137° Southeast  Level Estimated
05:18 -16.9472 -53.0910 137° Southeast  Level Estimated
05:19 -17.0465 -52.9952 137° Southeast  Level Estimated
05:20 -17.1457 -52.8993 137° Southeast  Level Estimated
05:21 -17.2449 -52.8034 137° Southeast  Level Estimated
05:22 -17.3440 -52.7073 137° Southeast  Level Estimated
05:23 -17.4431 -52.6111 137° Southeast  Level Estimated
05:24 -17.5422 -52.5148 137° Southeast  Level Estimated
05:25 -17.6411 -52.4184 137° Southeast  Level Estimated
05:26 -17.7401 -52.3219 137° Southeast  Level Estimated
05:27 -17.8390 -52.2253 137° Southeast  Level Estimated
05:28 -17.9379 -52.1286 137° Southeast  Level Estimated
05:29 -18.0367 -52.0317 137° Southeast  Level Estimated
05:30 -18.1354 -51.9348 137° Southeast  Level Estimated
05:31 -18.2341 -51.8378 137° Southeast  Level Estimated
05:32 -18.3328 -51.7406 137° Southeast  Level Estimated
05:33 -18.4314 -51.6434 137° Southeast  Level Estimated
05:34 -18.5300 -51.5460 137° Southeast  Level Estimated
05:35 -18.6285 -51.4485 137° Southeast  Level Estimated
05:36 -18.7269 -51.3509 137° Southeast  Level Estimated
05:37 -18.8253 -51.2532 137° Southeast  Level Estimated
05:38 -18.9237 -51.1553 137° Southeast  Level Estimated
05:38 -19.3900 -50.2480 137° Southeast 518 596 39,000  Level FlightAware
05:39 -19.0220 -51.0574 137° Southeast  Level Estimated
05:39 -19.4590 -50.1720 134° Southeast 518 596 39,000  Level FlightAware
05:40 -19.5450 -50.0780 134° Southeast 518 596 39,000  Level FlightAware
05:41 -19.6260 -49.9900 134° Southeast 518 596 39,000  Level FlightAware
05:41 -19.6940 -49.9160 134° Southeast 518 596 39,000  Level FlightAware
05:42 -19.7690 -49.8330 134° Southeast 518 596 39,000  Level FlightAware
05:43 -19.8530 -49.7410 134° Southeast 518 596 39,000  Level FlightAware
05:44 -19.9270 -49.6590 134° Southeast 519 597 39,000  Level FlightAware
05:44 -19.9770 -49.6050 135° Southeast 519 597 39,000  Level FlightAware
05:45 -20.0440 -49.5310 134° Southeast 519 597 39,000  Level FlightAware
05:46 -20.1220 -49.4430 133° Southeast 518 596 39,000  Level FlightAware
05:46 -20.1880 -49.3710 134° Southeast 518 596 39,000  Level FlightAware
05:47 -20.2620 -49.2890 134° Southeast 518 596 39,000  Level FlightAware
05:48 -20.3290 -49.2150 134° Southeast 519 597 39,000  Level FlightAware
05:49 -20.4460 -49.0850 134° Southeast 520 598 39,000  Level FlightAware
05:50 -20.5130 -49.0100 134° Southeast 519 597 39,000  Level FlightAware
05:50 -20.5790 -48.9360 134° Southeast 519 597 39,000  Level FlightAware
05:51 -20.6520 -48.8540 134° Southeast 519 597 39,000  Level FlightAware
05:52 -20.7190 -48.7800 134° Southeast 519 597 39,000  Level FlightAware
05:52 -20.7950 -48.6950 134° Southeast 519 597 39,000  Level FlightAware
05:53 -20.8620 -48.6190 133° Southeast 519 597 39,000  Level FlightAware
05:54 -20.9270 -48.5460 134° Southeast 519 597 39,000  Level FlightAware
05:55 -21.0020 -48.4630 134° Southeast 519 597 39,000  Level FlightAware
05:55 -21.0670 -48.3890 133° Southeast 519 597 39,000  Level FlightAware
05:56 -21.1430 -48.3030 133° Southeast 519 597 39,000  Level FlightAware
05:57 -21.2140 -48.2350 138° Southeast 515 593 39,000  Level FlightAware
05:57 -21.2960 -48.1650 142° Southeast 514 592 39,000  Level FlightAware
05:58 -21.3720 -48.1020 142° Southeast 514 592 39,000  Level FlightAware
05:59 -21.4470 -48.0400 142° Southeast 514 592 39,000 -120 Level FlightAware
05:59 -21.5330 -47.9700 143° Southeast 504 580 38,900 -780 Descending FlightAware
06:00 -21.6060 -47.9090 142° Southeast 489 563 37,900 -1,560 Descending FlightAware
06:01 -21.6840 -47.8450 143° Southeast 477 549 36,700 -1,740 Descending FlightAware
06:02 -21.7540 -47.7880 143° Southeast 469 540 35,500 -1,920 Descending FlightAware
06:02 -21.8210 -47.7320 142° Southeast 454 522 34,200 -2,220 Descending FlightAware
06:03 -21.8970 -47.6700 143° Southeast 437 503 32,400 -2,340 Descending FlightAware
06:04 -21.9600 -47.6170 142° Southeast 421 484 30,900 -2,280 Descending FlightAware
06:04 -22.0210 -47.5670 143° Southeast 411 473 29,400 -2,520 Descending FlightAware
06:05 -22.0890 -47.5110 143° Southeast 420 483 27,400 -2,340 Descending FlightAware
06:06 -22.1490 -47.4600 142° Southeast 422 486 26,100 -1,800 Descending FlightAware
06:06 -22.2180 -47.4020 142° Southeast 411 473 24,900 -1,560 Descending FlightAware
06:07 -22.2740 -47.3550 142° Southeast 398 458 23,900 -1,440 Descending FlightAware
06:08 -22.3300 -47.3070 142° Southeast 390 449 23,000 -1,500 Descending FlightAware
06:09 -22.3950 -47.2520 142° Southeast 390 449 21,800 -1,680 Descending FlightAware
06:09 -22.4520 -47.2030 142° Southeast 386 444 20,700 -1,200 Descending FlightAware
06:10 -22.5150 -47.1500 142° Southeast 377 434 20,100 -540 Descending FlightAware
06:11 -22.5730 -47.1040 144° Southeast 379 436 20,000 -600 Descending FlightAware
06:11 -22.6360 -47.0720 155° Southeast 364 419 19,300 -1,440 Descending FlightAware
06:12 -22.7090 -47.0420 159° South 360 414 18,000 -1,800 Descending FlightAware
06:13 -22.7740 -47.0150 159° South 362 417 16,800 -1,740 Descending FlightAware
06:13 -22.8430 -46.9860 159° South 349 402 15,600 -1,740 Descending FlightAware
06:14 -22.9050 -46.9600 159° South 347 399 14,400 -1,980 Descending FlightAware
06:15 -22.9660 -46.9340 159° South 347 399 13,000 -1,920 Descending FlightAware
06:16 -23.0300 -46.9080 160° South 297 342 11,700 -1,680 Descending FlightAware
06:16 -23.0780 -46.8870 158° South 275 316 10,700 -1,320 Descending FlightAware
06:17 -23.1320 -46.8650 159° South 262 302 9,900 -1,140 Descending FlightAware
06:17 -23.1610 -46.8520 158° South 275 316 9,400 -1,200 Descending FlightAware
06:18 -23.1980 -46.8370 160° South 275 316 8,800 -1,440 Descending FlightAware
06:18 -23.2290 -46.8230 157° South 278 320 8,100 -1,800 Descending FlightAware
06:19 -23.2480 -46.8160 161° South 263 303 7,600 -1,200 Descending FlightAware
06:19 -23.2650 -46.8080 157° South 240 276 7,500 -540 Descending FlightAware
06:19 -23.2950 -46.7950 158° South 220 253 7,200 -900 Descending FlightAware
06:20 -23.3150 -46.7810 147° Southeast 196 226 6,700 -900 Descending FlightAware
06:20 -23.3390 -46.7650 149° Southeast 192 221 6,400 -720 Descending FlightAware
06:20 -23.3510 -46.7570 149° Southeast 194 223 6,200 -600 Descending FlightAware
06:21 -23.3700 -46.7440 148° Southeast 192 221 6,000 -600 Descending FlightAware
06:21 -23.3820 -46.7360 149° Southeast 211 243 5,800 -960 Descending FlightAware
06:22 -23.4080 -46.7170 146° Southeast 216 249 5,300 -840 Descending FlightAware
06:22 -23.4180 -46.7050 132° Southeast 212 244 5,200 -180 Descending FlightAware
06:22 -23.4330 -46.6850 129° Southeast 212 244 5,200  Level FlightAware
06:23 -23.4510 -46.6600 128° Southeast 192 221 5,200 -480 Level FlightAware
06:23 -23.4650 -46.6410 129° Southeast 190 219 4,800 -780 Descending FlightAware
06:23 -23.4720 -46.6290 122° Southeast 189 217 4,700 -600 Descending FlightAware
06:24 -23.4730 -46.6150 94° East 180 207 4,500 -600 Descending FlightAware
06:24 -23.4700 -46.6020 76° East 176 203 4,400 -960 Descending FlightAware
06:24 -23.4630 -46.5750 74° East 176 203 3,800 -1,140 Descending FlightAware
06:25 -23.4570 -46.5540 73° East 157 181 3,400 -780 Descending FlightAware
06:25 -23.4510 -46.5330 73° East 141 162 3,100 -660 Descending FlightAware
06:26 -23.4470 -46.5160 76° East 139 160 2,800 -780 Descending FlightAware
06:26 -23.4410 -46.4960 72° East 135 155 2,400 -840 Descending FlightAware